Weather observations for the past three days for
Glencoe Municipal Airport
Metric (Imperial)
Date Time (cdt) Wind (kph) Vis. (km) Weather Sky Cond. Temperature (ºC) Relative Humidity Wind Chill (°C) Heat Index (°C) Pressure Precipitation (cm)
Air Dwpt 6 hour altimeter (cm) sea level (mb) 1 hr 3 hr 6 hr
Max. Min.
10 14:15 NW 19 G 39 16.09 Partly Cloudy SCT070 14.8 -2.6 30% 76.56 0.0
10 13:55 NW 17 G 33 16.09 Partly Cloudy SCT070 14.2 -1.8 33% 76.56 0.0
10 13:35 N 20 G 41 16.09 Partly Cloudy SCT060 14.2 -1.5 34% 76.56 0.0
10 13:15 N 11 G 35 16.09 Partly Cloudy SCT060 13.6 -0.9 37% 76.56 0.0
10 12:55 NW 15 G 28 16.09 Partly Cloudy SCT060 14.1 -0.5 14.2 5.9 37% 76.56 0.0
10 12:35 N 11 G 33 16.09 Fair CLR 13.5 -0.2 39% 76.56 0.0
10 12:15 NW 15 G 30 16.09 Partly Cloudy SCT085 13.1 -0.1 41% 76.56 0.0
10 11:55 N 17 G 28 16.09 Partly Cloudy SCT085 12.6 -0.1 42% 76.56 0.0
10 11:35 NW 15 G 26 16.09 Fair CLR 12.6 0.3 43% 76.56 0.0
10 11:15 N 15 16.09 Partly Cloudy SCT095 12.8 0.3 43% 76.56 0.0
10 10:55 N 17 16.09 Partly Cloudy SCT095 11.7 -0.2 44% 76.56 0.0
10 10:35 N 15 16.09 Partly Cloudy SCT095 11.5 -0.5 44% 76.53 0.0
10 10:15 N 15 16.09 Partly Cloudy SCT095 11.5 -0.3 44% 76.53 0.0
10 09:55 N 13 16.09 Mostly Cloudy BKN095 11 -0.2 46% 76.53 0.0
10 09:35 NE 13 16.09 Mostly Cloudy BKN095 10.4 -0.7 46% 76.53 0.0
10 09:15 N 15 16.09 Mostly Cloudy BKN095 10.4 -0.4 47% 76.5 0.0
10 08:55 N 11 16.09 Mostly Cloudy BKN095 9.8 -0.6 49% 8 76.5 0.0
10 08:35 N 11 16.09 Mostly Cloudy BKN095 9.1 -0.9 50% 8 76.5 0.0
10 08:15 Calm 16.09 Mostly Cloudy BKN095 8.6 -0.4 54% 76.5 0.0
10 07:55 N 9 16.09 Mostly Cloudy BKN095 8 -0.5 55% 7 76.48 0.0
10 07:35 NW 6 16.09 Mostly Cloudy BKN095 7.4 -0.9 56% 76.48 0.0
10 07:15 Calm 16.09 Partly Cloudy SCT095 6.1 -0.8 62% 76.45 0.0
10 06:55 Calm 16.09 Mostly Cloudy BKN095 6 -1.6 7.6 4.7 59% 76.43 0.0
10 06:35 N 7 16.09 Overcast OVC095 5.4 -1.5 61% 4 76.4 0.0
10 06:15 Calm 16.09 Overcast OVC095 5.7 -2.5 56% 76.38 0.0
10 05:55 Calm 16.09 Overcast OVC095 5.6 -2.2 58% 76.38 0.0
10 05:35 SW 6 16.09 Overcast OVC095 5.6 -2.5 56% 76.35 0.0
10 05:15 Calm 16.09 Overcast OVC095 5.6 -2.3 57% 76.33 0.0
10 04:55 Calm 16.09 Overcast OVC095 5.4 -2 59% 76.33 0.0
10 04:35 W 6 16.09 Mostly Cloudy BKN095 5.6 -2.1 58% 76.3 0.0
10 04:15 Calm 16.09 Overcast OVC095 6 -2 57% 76.28 0.0
10 03:55 Calm 16.09 Mostly Cloudy BKN095 6.2 -2.2 55% 76.28 0.0
10 03:35 W 6 16.09 Partly Cloudy SCT095 6.4 -2 55% 76.28 0.0
10 03:15 SW 9 16.09 Mostly Cloudy BKN095 6.3 -1.9 56% 5 76.25 0.0
10 02:55 SW 7 16.09 Overcast OVC095 5.3 -1.8 61% 4 76.23 0.0
10 02:35 Calm 16.09 Partly Cloudy SCT095 4.9 -2.1 61% 76.23 0.0
10 02:15 Calm 16.09 Partly Cloudy SCT095 5.5 -2.1 58% 76.23 0.0
10 01:55 Calm 16.09 Partly Cloudy SCT090 6.1 -2.3 55% 76.23 0.0
10 01:35 Calm 16.09 Mostly Cloudy BKN090 6.8 -2.6 52% 76.23 0.0
10 01:15 W 6 16.09 Overcast OVC090 7.2 -3 49% 76.23 0.0
10 00:55 W 6 16.09 Overcast OVC090 6.8 -2.7 14.4 6.5 51% 76.2 0.0
10 00:35 Calm 16.09 Mostly Cloudy BKN090 7.1 -3.4 48% 76.2 0.0
10 00:15 Calm 16.09 Mostly Cloudy BKN090 7.5 -3.3 47% 76.2 0.0
09 23:55 NW 6 16.09 Partly Cloudy SCT090 7 -3.7 47% 76.2 0.0
09 23:35 NW 7 16.09 Fair CLR 7.5 -4 44% 6 76.2 0.0
09 23:15 NW 11 16.09 Fair CLR 7.8 -4 43% 6 76.2 0.0
09 22:55 NW 11 16.09 Fair CLR 8.3 -4 42% 7 76.2 0.0
09 22:35 NW 13 16.09 Fair CLR 9 -4 40% 7 76.17 0.0
09 22:15 NW 13 16.09 Fair CLR 9.7 -4.2 38% 8 76.15 0.0
09 21:55 NW 15 16.09 Fair CLR 10.2 -4.2 36% 76.12 0.0
09 21:35 NW 15 16.09 Fair CLR 10.5 -4.2 36% 76.1 0.0
09 21:15 NW 15 16.09 Fair CLR 10.9 -4.5 34% 76.07 0.0
09 20:55 NW 17 16.09 Fair CLR 11.7 -4.5 32% 76.05 0.0
09 20:35 NW 17 16.09 Fair CLR 12.1 -4.3 32% 76.02 0.0
09 20:15 NW 15 16.09 Fair CLR 12.8 -4.1 31% 76 0.0
09 19:55 NW 26 G 31 16.09 Fair CLR 13.2 -4.7 29% 75.97 0.0
09 19:35 NW 24 G 31 16.09 Fair CLR 13.7 -4.5 28% 75.95 0.0
09 19:15 NW 24 G 37 16.09 Fair CLR 14.1 -4.5 27% 75.95 0.0
09 18:55 NW 22 G 39 16.09 Fair CLR 14.4 -4.7 15.9 14.2 27% 75.92 0.0
09 18:35 NW 22 G 41 16.09 Fair CLR 14.5 -5 26% 75.92 0.0
09 18:15 NW 20 G 50 16.09 Fair CLR 14.9 -4.3 26% 75.87 0.0
09 17:55 NW 31 G 43 16.09 Fair CLR 15.1 -5 25% 75.84 0.0
09 17:35 NW 22 G 41 16.09 Fair CLR 15.3 -4.3 26% 75.84 0.0
09 17:15 NW 26 G 37 16.09 Fair CLR 15.3 -3.5 27% 75.82 0.0
09 16:55 NW 22 G 37 16.09 Fair CLR 15.7 -3.9 26% 75.82 0.0
09 16:35 N 28 G 37 16.09 Fair CLR 15.4 -3.9 26% 75.82 0.0
09 16:15 N 19 G 33 16.09 Fair CLR 15.5 -2.1 30% 75.82 0.0
09 15:55 NW 24 G 39 16.09 Fair CLR 15.7 -3.1 27% 75.79 0.0
09 15:35 NW 31 G 44 16.09 Fair CLR 15.3 -4.3 26% 75.79 0.0
09 15:15 NW 26 G 43 16.09 Fair CLR 15.3 -3.3 28% 75.77 0.0
09 14:55 NW 33 G 41 16.09 Fair and Breezy CLR 15.4 -4.8 25% 75.77 0.0
09 14:35 NW 26 G 44 16.09 Fair CLR 15.1 -4.1 27% 75.77 0.0
09 14:15 NW 33 G 44 16.09 Fair and Breezy CLR 15.1 -3.2 28% 75.77 0.0
09 13:55 NW 26 G 37 16.09 Fair CLR 14.8 -3.1 29% 75.74 0.0
09 13:35 N 26 G 48 16.09 Fair CLR 14.4 -4.5 27% 75.74 0.0
09 13:15 NW 22 G 39 16.09 Fair CLR 14.4 -3.6 29% 75.72 0.0
09 12:55 NW 22 G 35 16.09 Fair CLR 14.1 -1.8 14.4 10 34% 75.72 0.0
09 12:35 NW 33 G 44 16.09 Fair and Breezy CLR 14.4 -1.9 33% 75.69 0.0
09 12:15 NW 35 G 50 16.09 Fair and Breezy CLR 14 -2.7 32% 75.69 0.0
09 11:55 NW 31 G 46 16.09 Fair CLR 13.9 -3.1 31% 75.69 0.0
09 11:35 NW 28 G 46 16.09 Fair CLR 13.7 -2.1 34% 75.69 0.0
09 11:15 N 30 G 41 16.09 Fair CLR 14 -1.8 34% 75.67 0.0
09 10:55 NW 24 G 48 16.09 Fair CLR 13.4 -1.6 36% 75.64 0.0
09 10:35 NW 31 G 41 16.09 Fair CLR 13.1 -0.3 40% 75.62 0.0
09 10:15 N 20 G 33 16.09 Fair CLR 13.1 0.7 43% 75.62 0.0
09 09:55 NW 20 G 28 16.09 Fair CLR 12.2 1 47% 75.59 0.0
09 09:35 NW 20 G 37 16.09 Fair CLR 11.8 1.4 49% 75.59 0.0
09 09:15 NW 28 G 35 16.09 Fair CLR 11.5 2.3 54% 75.57 0.0
09 08:55 N 28 G 37 16.09 Fair CLR 11.2 2.8 57% 75.54 0.0
09 08:35 NW 30 G 39 16.09 Fair CLR 10.4 4.4 67% 75.51 0.0
09 08:15 NW 19 16.09 Partly Cloudy SCT024 10.1 5.4 73% 75.49 0.0
09 07:55 NW 22 G 31 16.09 Partly Cloudy SCT026 10.5 5.1 70% 75.46 0.0
09 07:35 NW 26 G 35 16.09 Mostly Cloudy BKN026 10.3 5.5 72% 75.44 0.0
09 07:15 NW 26 16.09 Mostly Cloudy BKN026 10.6 6.2 74% 75.39 0.0
09 06:55 NW 19 G 35 16.09 Mostly Cloudy BKN026 BKN060 11.1 6.5 11.5 6.8 74% 75.36 0.0
09 06:35 NW 26 G 35 16.09 Mostly Cloudy SCT026 BKN050 11.3 6.5 73% 75.34 0.0
09 06:15 W 24 G 30 16.09 Overcast OVC050 11.5 6.3 71% 75.31 0.0
09 05:55 W 11 16.09 Mostly Cloudy SCT047 SCT060 BKN070 11 5.8 71% 75.31 0.0
09 05:35 W 9 16.09 Overcast SCT041 SCT050 OVC075 10.6 5.5 71% 75.26 0.0
09 05:15 SW 6 16.09 Light Rain SCT041 BKN048 BKN060 10.3 3.6 63% 75.26 0.0
09 04:55 N 6 16.09 Fair CLR 10.5 2.7 59% 75.26 0.0
09 04:35 Calm 16.09 Partly Cloudy SCT090 10.6 2.5 58% 75.29 0.0
09 04:15 N 9 16.09 Overcast OVC090 10.3 1.8 56% 75.31 0.0
09 03:55 N 7 16.09 Mostly Cloudy BKN090 10 1 54% 9 75.26 0.0
09 03:35 NW 9 16.09 Mostly Cloudy BKN090 9.5 0 52% 8 75.26 0.0
09 03:15 NW 11 16.09 Mostly Cloudy BKN090 9.7 -0.7 49% 8 75.23 0.0
09 02:55 NW 15 16.09 Overcast OVC100 9.2 -0.5 51% 7 75.23 0.0
09 02:35 Calm 16.09 Mostly Cloudy BKN100 7.6 -0.4 57% 75.18 0.0
09 02:15 Calm 16.09 Partly Cloudy SCT100 7.5 -0.6 57% 75.18 0.0
09 01:55 Calm 16.09 Mostly Cloudy BKN110 7.9 -0.5 56% 75.18 0.0
09 01:35 Calm 16.09 Mostly Cloudy BKN120 7.1 -0.5 59% 75.18 0.0
09 01:15 Calm 16.09 Partly Cloudy SCT120 6.8 -1 58% 75.21 0.0
09 00:55 SW 7 16.09 Fair CLR 10.1 -0.9 21.2 8.3 47% 75.21 0.0
09 00:35 SW 7 16.09 Fair CLR 9.2 -1 49% 8 75.21 0.0
09 00:15 Calm 16.09 Fair CLR 8.4 -1.2 51% 75.26 0.0
08 23:55 Calm 16.09 Fair CLR 9.6 -1 48% 75.26 0.0
08 23:35 Calm 16.09 Fair CLR 10.4 -1.1 45% 75.29 0.0
08 23:15 W 6 16.09 Fair CLR 11.8 -1 41% 75.31 0.0
08 22:55 NW 7 16.09 Fair CLR 12.7 -1.5 38% 75.31 0.0
08 22:35 NW 9 16.09 Fair CLR 12.7 -1.5 38% 75.31 0.0
08 22:15 NW 11 16.09 Fair CLR 14.2 -1.6 34% 75.31 0.0
08 21:55 NW 13 16.09 Fair CLR 15.1 -1.7 32% 75.29 0.0
08 21:35 NW 15 16.09 Fair CLR 16 -1.8 30% 75.26 0.0
08 21:15 NW 17 16.09 Fair CLR 16.3 -1.8 29% 75.26 0.0
08 20:55 NW 19 G 33 16.09 Fair CLR 17.2 -2 27% 75.23 0.0
08 20:35 NW 30 G 39 16.09 Fair CLR 17.8 -2 26% 75.21 0.0
08 20:15 NW 26 G 41 16.09 Fair CLR 18.7 -2 25% 75.18 0.0
08 19:55 NW 26 16.09 Fair CLR 19.4 -2.5 23% 75.18 0.0
08 19:35 NW 31 G 39 16.09 Fair CLR 20 -2.9 21% 75.16 0.0
08 19:15 NW 35 G 54 16.09 Fair and Breezy CLR 20.6 -3 20% 75.16 0.0
08 18:55 W 28 G 41 16.09 Fair CLR 21.2 -2 23 19.8 21% 75.16 0.0
08 18:35 W 28 G 54 16.09 Partly Cloudy SCT100 21.3 -1.6 22% 75.13 0.0
08 18:15 W 35 G 50 16.09 Partly Cloudy and Breezy SCT110 21.5 -1.8 21% 75.13 0.0
08 17:55 NW 39 G 46 16.09 Partly Cloudy and Breezy SCT100 22 -1.6 21% 75.13 0.0
08 17:35 W 43 G 52 16.09 Partly Cloudy and Windy SCT100 22.2 -1.3 21% 75.11 0.0
08 17:15 W 31 G 39 16.09 Partly Cloudy SCT110 22 -1.1 21% 75.13 0.0
08 16:55 W 31 16.09 Partly Cloudy SCT110 22.6 -0.7 21% 75.13 0.0
08 16:35 W 33 G 46 16.09 Partly Cloudy and Breezy SCT110 22.6 -0.7 21% 75.13 0.0
08 16:15 W 24 G 31 16.09 Partly Cloudy SCT100 22.5 -0.2 22% 75.16 0.0
08 15:55 W 24 G 37 16.09 Partly Cloudy SCT100 21.5 -1 22% 75.18 0.0
08 15:35 W 19 G 26 16.09 Partly Cloudy SCT100 21.6 -1.6 21% 75.21 0.0
08 15:15 W 19 G 31 16.09 Partly Cloudy SCT100 22.1 -1.8 20% 75.21 0.0
08 14:55 W 20 G 30 16.09 Partly Cloudy SCT100 21 -2.5 21% 75.26 0.0
08 14:35 W 19 G 41 16.09 Partly Cloudy SCT100 21.3 -2.2 21% 75.26 0.0
08 14:15 W 13 G 30 16.09 Partly Cloudy SCT100 20.9 -2.4 21% 75.31 0.0
08 13:55 NW 20 G 26 16.09 Partly Cloudy SCT110 20.8 -3.7 19% 75.31 0.0
08 13:35 W 20 G 31 16.09 Fair CLR 20.1 -3.9 20% 75.34 0.0
08 13:15 NW 24 G 33 16.09 Partly Cloudy SCT110 20.5 -3.1 20% 75.36 0.0
08 12:55 W 26 G 37 16.09 Partly Cloudy SCT110 20.8 -3 20.8 6.6 20% 75.36 0.0
08 12:35 W 20 G 28 16.09 Fair CLR 19.7 -3 21% 75.41 0.0
08 12:15 W 30 G 37 16.09 Fair CLR 19.8 -3.5 21% 75.41 0.0
08 11:55 W 20 G 35 16.09 Fair CLR 19.7 -3.8 20% 75.44 0.0
08 11:35 W 20 G 33 16.09 Fair CLR 19.5 -3.3 21% 75.46 0.0
08 11:15 W 20 G 26 16.09 Fair CLR 18.5 -3.5 22% 75.49 0.0
08 10:55 W 20 G 30 16.09 Partly Cloudy SCT100 18.1 -2.8 24% 75.49 0.0
08 10:35 W 19 G 31 16.09 Mostly Cloudy BKN100 18 -2.4 25% 75.51 0.0
08 10:15 W 24 16.09 Mostly Cloudy BKN100 16.8 -2.6 27% 75.51 0.0
08 09:55 W 19 G 30 16.09 Partly Cloudy SCT100 16.3 -3.2 26% 75.57 0.0
08 09:35 W 13 16.09 Partly Cloudy SCT100 15.1 -1.9 31% 75.57 0.0
08 09:15 SW 9 16.09 Partly Cloudy SCT100 13.2 -1.8 36% 75.57 0.0
08 08:55 SW 11 16.09 Mostly Cloudy BKN110 12.1 -2.5 36% 75.59 0.0
08 08:35 SW 6 16.09 Mostly Cloudy BKN110 11.2 -2.4 39% 75.59 0.0
08 08:15 SW 9 16.09 Mostly Cloudy BKN110 10.6 -2.9 39% 75.59 0.0
08 07:55 SW 9 16.09 Partly Cloudy SCT110 10.1 -3.2 39% 75.59 0.0
08 07:35 SW 7 16.09 Partly Cloudy SCT120 9.1 -3 43% 8 75.59 0.0
08 07:15 SW 7 16.09 Fair CLR 7.5 -3.4 46% 6 75.59 0.0
08 06:55 SW 7 16.09 Fair CLR 6.4 -4.1 7.5 4.4 47% 5 75.59 0.0
08 06:35 SW 6 16.09 Fair CLR 5.4 -4.2 50% 75.59 0.0
08 06:15 S 7 16.09 Fair CLR 4.7 -4.7 51% 3 75.59 0.0
08 05:55 Calm 16.09 Fair CLR 4.7 -4.6 51% 75.59 0.0
08 05:35 Calm 16.09 Fair CLR 5 -4.7 50% 75.59 0.0
08 05:15 Calm 16.09 Fair CLR 5.5 -4.7 48% 75.62 0.0
08 04:55 SW 6 16.09 Fair CLR 4.9 -4.3 52% 75.62 0.0
08 04:35 SW 6 16.09 Fair CLR 5.5 -4.1 50% 75.62 0.0
08 04:15 SW 6 16.09 Fair CLR 5.2 -4.4 50% 75.62 0.0
08 03:55 SW 7 16.09 Fair CLR 5.7 -4.8 47% 4 75.62 0.0
08 03:35 SW 6 16.09 Fair CLR 5.6 -5 47% 75.62 0.0
08 03:15 S 9 16.09 Fair CLR 6.6 -5.2 43% 5 75.62 0.0
08 02:55 S 13 16.09 Fair CLR 7.3 -5.5 40% 5 75.64 0.0
08 02:35 S 11 16.09 Fair CLR 7.1 -5.3 41% 5 75.64 0.0
08 02:15 S 11 16.09 Fair CLR 7.1 -5.3 41% 5 75.64 0.0
08 01:55 S 11 16.09 Fair CLR 7.4 -5.5 40% 6 75.67 0.0
08 01:35 S 9 16.09 Fair CLR 7.4 -5.2 41% 6 75.67 0.0
08 01:15 S 9 16.09 Fair CLR 7.4 -5.1 41% 6 75.67 0.0
08 00:55 S 7 16.09 Fair CLR 7.2 -4.6 15 4.4 43% 6 75.69 0.0
08 00:35 S 6 16.09 Fair CLR 6.5 -4.5 46% 75.69 0.0
08 00:15 Calm 16.09 Fair CLR 6.3 -4.3 47% 75.69 0.0
07 23:55 Calm 16.09 Fair CLR 6.4 -4.4 46% 75.69 0.0
07 23:35 Calm 16.09 Fair CLR 5.5 -4 51% 75.72 0.0
07 23:15 Calm 16.09 Fair CLR 5.4 -3.5 53% 75.72 0.0
07 22:55 Calm 16.09 Fair CLR 6.7 -4 47% 75.72 0.0
07 22:35 Calm 16.09 Fair CLR 6.5 -3.5 49% 75.74 0.0
07 22:15 Calm 16.09 Fair CLR 8.8 -4.6 39% 75.74 0.0
07 21:55 Calm 16.09 Fair CLR 8.1 -4.1 42% 75.74 0.0
07 21:35 Calm 16.09 Fair CLR 10.3 -4.9 34% 75.74 0.0
07 21:15 Calm 16.09 Fair CLR 10.3 -4.8 35% 75.74 0.0
07 20:55 NW 6 16.09 Fair CLR 10.6 -5 33% 75.72 0.0
07 20:35 NW 7 16.09 Fair CLR 12 -5.3 30% 75.69 0.0
07 20:15 NW 6 16.09 Fair CLR 12.5 -5.6 28% 75.69 0.0
07 19:55 NW 13 16.09 Fair CLR 13.9 -5.8 25% 75.69 0.0
07 19:35 W 15 16.09 Fair CLR 14.3 -6.2 24% 75.69 0.0
07 19:15 W 13 16.09 Fair CLR 14.8 -6.1 23% 75.69 0.0
07 18:55 NW 13 16.09 Fair CLR 15.1 -5.8 15.5 11.8 23% 75.69 0.0
07 18:35 NW 11 16.09 Fair CLR 15.3 -6 23% 75.69 0.0
07 18:15 W 22 G 30 16.09 Fair CLR 15.5 -5.9 23% 75.69 0.0
07 17:55 W 15 G 26 16.09 Fair CLR 15.2 -6.3 22% 75.69 0.0
07 17:35 NW 17 G 31 16.09 Fair CLR 15.1 -6.1 23% 75.72 0.0
07 17:15 W 11 16.09 Fair CLR 15 -5.5 24% 75.72 0.0
07 16:55 NW 15 G 30 16.09 Fair CLR 14.6 -6.6 23% 75.74 0.0
07 16:35 W 7 16.09 Fair CLR 14.4 -7 22% 75.74 0.0
07 16:15 NW 17 G 28 16.09 Fair CLR 14.5 -6.4 23% 75.74 0.0
07 15:55 W 19 G 33 16.09 Fair CLR 14.7 -6.7 22% 75.77 0.0
07 15:35 W 19 G 26 16.09 Fair CLR 14 -6.6 24% 75.77 0.0
07 15:15 W 19 16.09 Fair CLR 13.9 -7.4 22% 75.79 0.0
07 14:55 NW 11 G 33 16.09 Fair CLR 13.8 -6.4 24% 75.82 0.0
07 14:35 N 20 G 35 16.09 Fair CLR 13.1 -6.3 26% 75.82 0.0
Date Time (cdt) Wind (kph) Vis. (km) Weather Sky Cond. Air Dwpt Max. Min. Relative Humidity Wind Chill (°C) Heat Index (°C) altimeter (cm) sea level (mb) 1 hr 3 hr 6 hr
6 hour
Temperature (ºC) Pressure Precipitation (cm)